sensor_id;sensor_type;location;lat;lon;timestamp;P1;durP1;ratioP1;P2;durP2;ratioP2
52692;SDS011;68218;51.012;-1.648;2024-03-23T00:54:54;4.57;;;1.50;;
52692;SDS011;68218;51.012;-1.648;2024-03-23T00:57:20;7.45;;;1.92;;
52692;SDS011;68218;51.012;-1.648;2024-03-23T00:59:45;9.20;;;1.50;;
52692;SDS011;68218;51.012;-1.648;2024-03-23T01:02:10;9.23;;;1.70;;
52692;SDS011;68218;51.012;-1.648;2024-03-23T01:04:36;6.65;;;1.30;;
52692;SDS011;68218;51.012;-1.648;2024-03-23T01:07:01;5.22;;;1.60;;
52692;SDS011;68218;51.012;-1.648;2024-03-23T01:09:26;6.55;;;1.40;;
52692;SDS011;68218;51.012;-1.648;2024-03-23T01:11:51;7.75;;;1.77;;
52692;SDS011;68218;51.012;-1.648;2024-03-23T01:14:17;7.10;;;1.88;;
52692;SDS011;68218;51.012;-1.648;2024-03-23T01:16:42;7.45;;;1.90;;
52692;SDS011;68218;51.012;-1.648;2024-03-23T01:19:07;7.88;;;1.55;;
52692;SDS011;68218;51.012;-1.648;2024-03-23T01:21:32;7.32;;;1.35;;
52692;SDS011;68218;51.012;-1.648;2024-03-23T01:23:57;10.25;;;1.90;;
52692;SDS011;68218;51.012;-1.648;2024-03-23T01:26:23;13.02;;;1.73;;
52692;SDS011;68218;51.012;-1.648;2024-03-23T01:28:48;8.35;;;1.35;;
52692;SDS011;68218;51.012;-1.648;2024-03-23T01:31:13;8.93;;;1.50;;
52692;SDS011;68218;51.012;-1.648;2024-03-23T01:33:38;5.40;;;1.42;;
52692;SDS011;68218;51.012;-1.648;2024-03-23T01:36:03;7.22;;;1.45;;
52692;SDS011;68218;51.012;-1.648;2024-03-23T01:38:29;7.75;;;1.75;;
52692;SDS011;68218;51.012;-1.648;2024-03-23T01:40:57;6.43;;;1.40;;
52692;SDS011;68218;51.012;-1.648;2024-03-23T01:43:22;10.00;;;1.80;;
52692;SDS011;68218;51.012;-1.648;2024-03-23T01:45:47;10.73;;;1.73;;
52692;SDS011;68218;51.012;-1.648;2024-03-23T01:48:13;8.23;;;1.65;;
52692;SDS011;68218;51.012;-1.648;2024-03-23T01:50:38;8.27;;;1.70;;
52692;SDS011;68218;51.012;-1.648;2024-03-23T01:53:04;9.70;;;1.67;;
52692;SDS011;68218;51.012;-1.648;2024-03-23T01:55:30;10.30;;;1.63;;
52692;SDS011;68218;51.012;-1.648;2024-03-23T01:57:56;11.57;;;2.40;;
52692;SDS011;68218;51.012;-1.648;2024-03-23T02:00:21;9.00;;;1.30;;
52692;SDS011;68218;51.012;-1.648;2024-03-23T02:02:48;10.10;;;1.65;;
52692;SDS011;68218;51.012;-1.648;2024-03-23T02:05:13;14.30;;;1.98;;
52692;SDS011;68218;51.012;-1.648;2024-03-23T02:07:39;11.63;;;1.88;;
52692;SDS011;68218;51.012;-1.648;2024-03-23T02:10:05;9.60;;;2.05;;
52692;SDS011;68218;51.012;-1.648;2024-03-23T02:12:31;12.68;;;2.60;;
52692;SDS011;68218;51.012;-1.648;2024-03-23T02:14:56;12.82;;;2.40;;
52692;SDS011;68218;51.012;-1.648;2024-03-23T02:17:21;12.07;;;1.83;;
52692;SDS011;68218;51.012;-1.648;2024-03-23T02:19:46;9.18;;;1.85;;
52692;SDS011;68218;51.012;-1.648;2024-03-23T02:22:11;13.32;;;1.90;;
52692;SDS011;68218;51.012;-1.648;2024-03-23T02:24:37;13.60;;;2.45;;
52692;SDS011;68218;51.012;-1.648;2024-03-23T02:27:02;10.48;;;2.08;;
52692;SDS011;68218;51.012;-1.648;2024-03-23T02:29:28;11.30;;;2.10;;
52692;SDS011;68218;51.012;-1.648;2024-03-23T02:31:53;11.85;;;2.30;;
52692;SDS011;68218;51.012;-1.648;2024-03-23T02:34:18;9.63;;;1.45;;
52692;SDS011;68218;51.012;-1.648;2024-03-23T02:36:43;12.88;;;2.30;;
52692;SDS011;68218;51.012;-1.648;2024-03-23T02:39:08;10.75;;;1.60;;
52692;SDS011;68218;51.012;-1.648;2024-03-23T02:41:34;14.18;;;2.00;;
52692;SDS011;68218;51.012;-1.648;2024-03-23T02:43:59;9.93;;;1.70;;
52692;SDS011;68218;51.012;-1.648;2024-03-23T02:46:24;11.30;;;2.22;;
52692;SDS011;68218;51.012;-1.648;2024-03-23T02:48:49;13.23;;;2.30;;
52692;SDS011;68218;51.012;-1.648;2024-03-23T02:51:14;10.63;;;1.70;;
52692;SDS011;68218;51.012;-1.648;2024-03-23T02:53:40;7.78;;;1.73;;
52692;SDS011;68218;51.012;-1.648;2024-03-23T02:56:06;10.40;;;2.47;;
52692;SDS011;68218;51.012;-1.648;2024-03-23T02:58:31;16.20;;;2.15;;
52692;SDS011;68218;51.012;-1.648;2024-03-23T03:00:56;11.15;;;1.70;;
52692;SDS011;68218;51.012;-1.648;2024-03-23T03:03:22;10.38;;;1.83;;
52692;SDS011;68218;51.012;-1.648;2024-03-23T03:05:47;11.20;;;2.03;;
52692;SDS011;68218;51.012;-1.648;2024-03-23T03:08:12;12.13;;;2.05;;
52692;SDS011;68218;51.012;-1.648;2024-03-23T03:10:37;12.15;;;2.10;;
52692;SDS011;68218;51.012;-1.648;2024-03-23T03:13:02;14.82;;;2.20;;
52692;SDS011;68218;51.012;-1.648;2024-03-23T03:15:28;21.10;;;2.67;;
52692;SDS011;68218;51.012;-1.648;2024-03-23T03:17:53;17.00;;;2.20;;
52692;SDS011;68218;51.012;-1.648;2024-03-23T03:20:18;12.55;;;2.13;;
52692;SDS011;68218;51.012;-1.648;2024-03-23T03:22:43;9.85;;;2.15;;
52692;SDS011;68218;51.012;-1.648;2024-03-23T03:25:09;16.60;;;2.35;;
52692;SDS011;68218;51.012;-1.648;2024-03-23T03:27:34;11.45;;;2.03;;
52692;SDS011;68218;51.012;-1.648;2024-03-23T03:29:59;14.50;;;2.28;;
52692;SDS011;68218;51.012;-1.648;2024-03-23T03:32:27;16.45;;;2.67;;
52692;SDS011;68218;51.012;-1.648;2024-03-23T03:34:52;12.90;;;2.28;;
52692;SDS011;68218;51.012;-1.648;2024-03-23T03:37:17;13.32;;;2.30;;
52692;SDS011;68218;51.012;-1.648;2024-03-23T03:39:42;11.88;;;1.92;;
52692;SDS011;68218;51.012;-1.648;2024-03-23T03:42:07;13.35;;;2.03;;
52692;SDS011;68218;51.012;-1.648;2024-03-23T03:44:33;15.27;;;2.28;;
52692;SDS011;68218;51.012;-1.648;2024-03-23T03:46:58;12.57;;;3.00;;
52692;SDS011;68218;51.012;-1.648;2024-03-23T03:49:23;12.65;;;2.30;;
52692;SDS011;68218;51.012;-1.648;2024-03-23T03:51:48;15.50;;;2.30;;
52692;SDS011;68218;51.012;-1.648;2024-03-23T03:54:13;15.65;;;2.03;;
52692;SDS011;68218;51.012;-1.648;2024-03-23T03:56:38;15.52;;;2.10;;
52692;SDS011;68218;51.012;-1.648;2024-03-23T03:59:04;12.65;;;2.10;;
52692;SDS011;68218;51.012;-1.648;2024-03-23T04:01:29;12.65;;;2.63;;
52692;SDS011;68218;51.012;-1.648;2024-03-23T04:03:55;15.05;;;2.22;;
52692;SDS011;68218;51.012;-1.648;2024-03-23T04:06:20;17.58;;;2.97;;
52692;SDS011;68218;51.012;-1.648;2024-03-23T04:08:45;14.85;;;2.42;;
52692;SDS011;68218;51.012;-1.648;2024-03-23T04:11:10;16.02;;;2.38;;
52692;SDS011;68218;51.012;-1.648;2024-03-23T04:13:36;14.65;;;2.22;;
52692;SDS011;68218;51.012;-1.648;2024-03-23T04:16:01;18.33;;;3.13;;
52692;SDS011;68218;51.012;-1.648;2024-03-23T04:18:26;9.13;;;2.05;;
52692;SDS011;68218;51.012;-1.648;2024-03-23T04:20:51;13.73;;;2.42;;
52692;SDS011;68218;51.012;-1.648;2024-03-23T04:23:17;12.55;;;2.10;;
52692;SDS011;68218;51.012;-1.648;2024-03-23T04:25:42;10.93;;;2.30;;
52692;SDS011;68218;51.012;-1.648;2024-03-23T04:28:07;13.68;;;2.65;;
52692;SDS011;68218;51.012;-1.648;2024-03-23T04:30:32;14.77;;;2.03;;
52692;SDS011;68218;51.012;-1.648;2024-03-23T04:32:58;14.77;;;2.40;;
52692;SDS011;68218;51.012;-1.648;2024-03-23T04:35:23;14.30;;;2.33;;
52692;SDS011;68218;51.012;-1.648;2024-03-23T04:37:50;13.43;;;2.42;;
52692;SDS011;68218;51.012;-1.648;2024-03-23T04:40:17;17.60;;;2.40;;
52692;SDS011;68218;51.012;-1.648;2024-03-23T04:42:42;11.98;;;1.92;;
52692;SDS011;68218;51.012;-1.648;2024-03-23T04:45:07;13.63;;;1.98;;
52692;SDS011;68218;51.012;-1.648;2024-03-23T04:47:33;19.13;;;3.13;;
52692;SDS011;68218;51.012;-1.648;2024-03-23T04:50:00;12.82;;;2.85;;
52692;SDS011;68218;51.012;-1.648;2024-03-23T04:52:26;14.25;;;2.95;;
52692;SDS011;68218;51.012;-1.648;2024-03-23T04:54:51;13.02;;;2.63;;
52692;SDS011;68218;51.012;-1.648;2024-03-23T04:57:17;13.85;;;2.58;;
52692;SDS011;68218;51.012;-1.648;2024-03-23T04:59:42;16.00;;;3.05;;
52692;SDS011;68218;51.012;-1.648;2024-03-23T05:02:07;13.98;;;2.80;;
52692;SDS011;68218;51.012;-1.648;2024-03-23T05:04:32;18.65;;;2.70;;
52692;SDS011;68218;51.012;-1.648;2024-03-23T05:06:58;14.25;;;2.67;;
52692;SDS011;68218;51.012;-1.648;2024-03-23T05:09:23;13.35;;;3.13;;
52692;SDS011;68218;51.012;-1.648;2024-03-23T05:11:48;15.25;;;2.63;;
52692;SDS011;68218;51.012;-1.648;2024-03-23T05:14:13;19.10;;;3.75;;
52692;SDS011;68218;51.012;-1.648;2024-03-23T05:16:39;16.88;;;3.20;;
52692;SDS011;68218;51.012;-1.648;2024-03-23T05:19:04;15.73;;;2.90;;
52692;SDS011;68218;51.012;-1.648;2024-03-23T05:21:29;16.58;;;2.70;;
52692;SDS011;68218;51.012;-1.648;2024-03-23T05:23:54;16.02;;;3.00;;
52692;SDS011;68218;51.012;-1.648;2024-03-23T05:26:21;20.73;;;3.30;;
52692;SDS011;68218;51.012;-1.648;2024-03-23T05:28:46;17.48;;;3.10;;
52692;SDS011;68218;51.012;-1.648;2024-03-23T05:31:11;12.32;;;2.55;;
52692;SDS011;68218;51.012;-1.648;2024-03-23T05:33:37;13.88;;;2.60;;
52692;SDS011;68218;51.012;-1.648;2024-03-23T05:36:05;13.90;;;2.85;;
52692;SDS011;68218;51.012;-1.648;2024-03-23T05:38:30;14.57;;;2.90;;
52692;SDS011;68218;51.012;-1.648;2024-03-23T05:40:56;16.35;;;2.83;;
52692;SDS011;68218;51.012;-1.648;2024-03-23T05:43:21;15.80;;;2.60;;
52692;SDS011;68218;51.012;-1.648;2024-03-23T05:45:53;14.23;;;2.70;;
52692;SDS011;68218;51.012;-1.648;2024-03-23T05:48:18;18.27;;;3.42;;
52692;SDS011;68218;51.012;-1.648;2024-03-23T05:50:43;14.90;;;2.92;;
52692;SDS011;68218;51.012;-1.648;2024-03-23T05:53:08;15.50;;;2.60;;
52692;SDS011;68218;51.012;-1.648;2024-03-23T05:55:34;15.77;;;2.50;;
52692;SDS011;68218;51.012;-1.648;2024-03-23T05:57:59;14.98;;;3.15;;
52692;SDS011;68218;51.012;-1.648;2024-03-23T06:00:25;13.23;;;2.97;;
52692;SDS011;68218;51.012;-1.648;2024-03-23T06:02:51;18.83;;;3.33;;
52692;SDS011;68218;51.012;-1.648;2024-03-23T06:05:16;24.83;;;4.70;;
52692;SDS011;68218;51.012;-1.648;2024-03-23T06:07:41;18.90;;;2.97;;
52692;SDS011;68218;51.012;-1.648;2024-03-23T06:10:07;17.15;;;3.30;;
52692;SDS011;68218;51.012;-1.648;2024-03-23T06:12:32;14.73;;;2.85;;
52692;SDS011;68218;51.012;-1.648;2024-03-23T06:14:57;18.20;;;2.35;;
52692;SDS011;68218;51.012;-1.648;2024-03-23T06:17:22;16.77;;;3.13;;
52692;SDS011;68218;51.012;-1.648;2024-03-23T06:19:48;19.27;;;3.22;;
52692;SDS011;68218;51.012;-1.648;2024-03-23T06:22:14;15.65;;;3.05;;
52692;SDS011;68218;51.012;-1.648;2024-03-23T06:24:39;12.55;;;2.85;;
52692;SDS011;68218;51.012;-1.648;2024-03-23T06:27:04;18.50;;;3.17;;
52692;SDS011;68218;51.012;-1.648;2024-03-23T06:29:29;18.10;;;2.65;;
52692;SDS011;68218;51.012;-1.648;2024-03-23T06:31:55;14.02;;;2.70;;
52692;SDS011;68218;51.012;-1.648;2024-03-23T06:34:20;14.68;;;2.83;;
52692;SDS011;68218;51.012;-1.648;2024-03-23T06:36:46;17.88;;;2.80;;
52692;SDS011;68218;51.012;-1.648;2024-03-23T06:39:12;10.35;;;3.17;;
52692;SDS011;68218;51.012;-1.648;2024-03-23T06:41:40;16.98;;;4.45;;
52692;SDS011;68218;51.012;-1.648;2024-03-23T06:44:05;12.15;;;4.00;;
52692;SDS011;68218;51.012;-1.648;2024-03-23T06:46:30;15.88;;;3.55;;
52692;SDS011;68218;51.012;-1.648;2024-03-23T06:48:56;18.83;;;3.40;;
52692;SDS011;68218;51.012;-1.648;2024-03-23T06:51:21;18.48;;;4.43;;
52692;SDS011;68218;51.012;-1.648;2024-03-23T06:53:46;11.52;;;2.92;;
52692;SDS011;68218;51.012;-1.648;2024-03-23T06:56:11;17.08;;;4.00;;
52692;SDS011;68218;51.012;-1.648;2024-03-23T06:58:37;10.80;;;2.17;;
52692;SDS011;68218;51.012;-1.648;2024-03-23T07:01:02;16.80;;;3.13;;
52692;SDS011;68218;51.012;-1.648;2024-03-23T07:03:27;14.05;;;2.40;;
52692;SDS011;68218;51.012;-1.648;2024-03-23T07:05:52;12.00;;;2.80;;
52692;SDS011;68218;51.012;-1.648;2024-03-23T07:08:17;14.65;;;2.78;;
52692;SDS011;68218;51.012;-1.648;2024-03-23T07:10:47;9.68;;;2.70;;
52692;SDS011;68218;51.012;-1.648;2024-03-23T07:13:12;14.80;;;3.45;;
52692;SDS011;68218;51.012;-1.648;2024-03-23T07:15:37;16.13;;;2.65;;
52692;SDS011;68218;51.012;-1.648;2024-03-23T07:18:02;14.32;;;3.67;;
52692;SDS011;68218;51.012;-1.648;2024-03-23T07:20:27;14.07;;;3.20;;
52692;SDS011;68218;51.012;-1.648;2024-03-23T07:22:55;15.88;;;3.05;;
52692;SDS011;68218;51.012;-1.648;2024-03-23T07:25:20;20.63;;;3.03;;
52692;SDS011;68218;51.012;-1.648;2024-03-23T07:27:47;11.45;;;2.70;;
52692;SDS011;68218;51.012;-1.648;2024-03-23T07:30:13;12.18;;;2.85;;
52692;SDS011;68218;51.012;-1.648;2024-03-23T07:32:38;11.73;;;2.45;;
52692;SDS011;68218;51.012;-1.648;2024-03-23T07:35:03;11.27;;;2.80;;
52692;SDS011;68218;51.012;-1.648;2024-03-23T07:37:29;12.25;;;2.70;;
52692;SDS011;68218;51.012;-1.648;2024-03-23T07:39:54;8.77;;;2.00;;
52692;SDS011;68218;51.012;-1.648;2024-03-23T07:42:21;6.82;;;1.83;;
52692;SDS011;68218;51.012;-1.648;2024-03-23T07:44:47;8.18;;;2.03;;
52692;SDS011;68218;51.012;-1.648;2024-03-23T07:47:12;11.13;;;2.25;;
52692;SDS011;68218;51.012;-1.648;2024-03-23T07:49:37;11.02;;;2.70;;
52692;SDS011;68218;51.012;-1.648;2024-03-23T07:52:02;9.52;;;2.75;;
52692;SDS011;68218;51.012;-1.648;2024-03-23T07:54:28;10.57;;;2.00;;
52692;SDS011;68218;51.012;-1.648;2024-03-23T07:56:53;11.43;;;2.00;;
52692;SDS011;68218;51.012;-1.648;2024-03-23T07:59:19;9.98;;;2.05;;
52692;SDS011;68218;51.012;-1.648;2024-03-23T08:01:44;6.63;;;1.35;;
52692;SDS011;68218;51.012;-1.648;2024-03-23T08:04:09;10.95;;;2.25;;
52692;SDS011;68218;51.012;-1.648;2024-03-23T08:06:35;9.82;;;1.60;;
52692;SDS011;68218;51.012;-1.648;2024-03-23T08:09:00;12.38;;;2.00;;
52692;SDS011;68218;51.012;-1.648;2024-03-23T08:11:26;9.75;;;1.67;;
52692;SDS011;68218;51.012;-1.648;2024-03-23T08:13:51;10.23;;;1.67;;
52692;SDS011;68218;51.012;-1.648;2024-03-23T08:16:16;11.93;;;2.28;;
52692;SDS011;68218;51.012;-1.648;2024-03-23T08:18:41;8.05;;;1.58;;
52692;SDS011;68218;51.012;-1.648;2024-03-23T08:21:07;10.80;;;1.75;;
52692;SDS011;68218;51.012;-1.648;2024-03-23T08:23:32;5.70;;;1.70;;
52692;SDS011;68218;51.012;-1.648;2024-03-23T08:26:09;13.25;;;2.40;;
52692;SDS011;68218;51.012;-1.648;2024-03-23T08:28:35;11.60;;;2.50;;
52692;SDS011;68218;51.012;-1.648;2024-03-23T08:31:01;12.02;;;2.20;;
52692;SDS011;68218;51.012;-1.648;2024-03-23T08:33:27;14.20;;;2.08;;
52692;SDS011;68218;51.012;-1.648;2024-03-23T08:35:56;8.45;;;1.80;;
52692;SDS011;68218;51.012;-1.648;2024-03-23T08:38:22;11.75;;;2.80;;
52692;SDS011;68218;51.012;-1.648;2024-03-23T08:40:47;9.88;;;2.50;;
52692;SDS011;68218;51.012;-1.648;2024-03-23T08:43:12;14.45;;;3.00;;
52692;SDS011;68218;51.012;-1.648;2024-03-23T08:45:38;12.13;;;2.60;;
52692;SDS011;68218;51.012;-1.648;2024-03-23T08:48:03;11.95;;;2.10;;
52692;SDS011;68218;51.012;-1.648;2024-03-23T08:50:28;12.55;;;2.25;;
52692;SDS011;68218;51.012;-1.648;2024-03-23T08:52:53;12.80;;;2.38;;
52692;SDS011;68218;51.012;-1.648;2024-03-23T08:55:19;16.83;;;2.53;;
52692;SDS011;68218;51.012;-1.648;2024-03-23T08:57:44;13.00;;;3.15;;
52692;SDS011;68218;51.012;-1.648;2024-03-23T09:00:09;10.02;;;1.70;;
52692;SDS011;68218;51.012;-1.648;2024-03-23T09:02:36;17.75;;;2.63;;
52692;SDS011;68218;51.012;-1.648;2024-03-23T09:05:01;15.63;;;3.90;;
52692;SDS011;68218;51.012;-1.648;2024-03-23T09:07:29;10.73;;;2.05;;
52692;SDS011;68218;51.012;-1.648;2024-03-23T09:09:54;19.15;;;3.33;;
52692;SDS011;68218;51.012;-1.648;2024-03-23T09:12:20;18.23;;;3.30;;
52692;SDS011;68218;51.012;-1.648;2024-03-23T09:14:45;14.38;;;3.28;;
52692;SDS011;68218;51.012;-1.648;2024-03-23T09:17:10;15.27;;;3.03;;
52692;SDS011;68218;51.012;-1.648;2024-03-23T09:19:35;13.25;;;3.28;;
52692;SDS011;68218;51.012;-1.648;2024-03-23T09:22:00;15.15;;;2.97;;
52692;SDS011;68218;51.012;-1.648;2024-03-23T09:24:26;19.65;;;3.13;;
52692;SDS011;68218;51.012;-1.648;2024-03-23T09:26:51;17.67;;;3.78;;
52692;SDS011;68218;51.012;-1.648;2024-03-23T09:29:17;18.25;;;3.72;;
52692;SDS011;68218;51.012;-1.648;2024-03-23T09:31:42;20.35;;;3.70;;
52692;SDS011;68218;51.012;-1.648;2024-03-23T09:34:07;15.15;;;3.05;;
52692;SDS011;68218;51.012;-1.648;2024-03-23T09:36:32;8.65;;;1.92;;
52692;SDS011;68218;51.012;-1.648;2024-03-23T09:38:58;17.35;;;3.33;;
52692;SDS011;68218;51.012;-1.648;2024-03-23T09:41:23;15.07;;;2.60;;
52692;SDS011;68218;51.012;-1.648;2024-03-23T09:43:48;11.15;;;2.85;;
52692;SDS011;68218;51.012;-1.648;2024-03-23T09:46:14;14.32;;;3.15;;
52692;SDS011;68218;51.012;-1.648;2024-03-23T09:48:39;11.70;;;2.28;;
52692;SDS011;68218;51.012;-1.648;2024-03-23T09:51:05;11.80;;;2.22;;
52692;SDS011;68218;51.012;-1.648;2024-03-23T09:53:35;11.82;;;2.20;;
52692;SDS011;68218;51.012;-1.648;2024-03-23T09:56:00;12.88;;;2.50;;
52692;SDS011;68218;51.012;-1.648;2024-03-23T09:58:25;9.82;;;2.03;;
52692;SDS011;68218;51.012;-1.648;2024-03-23T10:00:50;10.63;;;2.20;;
52692;SDS011;68218;51.012;-1.648;2024-03-23T10:03:16;9.07;;;2.47;;
52692;SDS011;68218;51.012;-1.648;2024-03-23T10:05:41;10.38;;;2.00;;
52692;SDS011;68218;51.012;-1.648;2024-03-23T10:10:38;12.85;;;2.15;;
52692;SDS011;68218;51.012;-1.648;2024-03-23T10:13:03;10.52;;;2.08;;
52692;SDS011;68218;51.012;-1.648;2024-03-23T10:15:28;8.30;;;1.90;;
52692;SDS011;68218;51.012;-1.648;2024-03-23T10:17:54;8.85;;;2.08;;
52692;SDS011;68218;51.012;-1.648;2024-03-23T10:20:23;7.13;;;1.20;;
52692;SDS011;68218;51.012;-1.648;2024-03-23T10:22:48;5.72;;;1.65;;
52692;SDS011;68218;51.012;-1.648;2024-03-23T10:25:14;7.93;;;1.73;;
52692;SDS011;68218;51.012;-1.648;2024-03-23T10:27:39;7.45;;;1.90;;
52692;SDS011;68218;51.012;-1.648;2024-03-23T10:30:11;11.77;;;1.42;;
52692;SDS011;68218;51.012;-1.648;2024-03-23T10:32:37;8.45;;;1.90;;
52692;SDS011;68218;51.012;-1.648;2024-03-23T10:35:18;8.40;;;1.40;;
52692;SDS011;68218;51.012;-1.648;2024-03-23T10:37:44;10.68;;;1.45;;
52692;SDS011;68218;51.012;-1.648;2024-03-23T10:40:09;5.93;;;1.42;;
52692;SDS011;68218;51.012;-1.648;2024-03-23T10:42:35;4.05;;;1.05;;
52692;SDS011;68218;51.012;-1.648;2024-03-23T10:45:00;5.78;;;1.10;;
52692;SDS011;68218;51.012;-1.648;2024-03-23T10:47:28;10.05;;;1.75;;
52692;SDS011;68218;51.012;-1.648;2024-03-23T10:49:53;11.32;;;1.60;;
52692;SDS011;68218;51.012;-1.648;2024-03-23T10:52:19;6.75;;;1.63;;
52692;SDS011;68218;51.012;-1.648;2024-03-23T10:54:44;6.82;;;1.52;;
52692;SDS011;68218;51.012;-1.648;2024-03-23T10:57:17;7.72;;;2.08;;
52692;SDS011;68218;51.012;-1.648;2024-03-23T10:59:42;9.70;;;2.50;;
52692;SDS011;68218;51.012;-1.648;2024-03-23T11:02:08;7.97;;;1.90;;
52692;SDS011;68218;51.012;-1.648;2024-03-23T11:04:43;7.38;;;1.30;;
52692;SDS011;68218;51.012;-1.648;2024-03-23T11:09:49;10.52;;;1.60;;
52692;SDS011;68218;51.012;-1.648;2024-03-23T11:14:48;8.00;;;1.30;;
52692;SDS011;68218;51.012;-1.648;2024-03-23T11:17:19;8.57;;;1.48;;
52692;SDS011;68218;51.012;-1.648;2024-03-23T11:19:46;8.85;;;1.45;;
52692;SDS011;68218;51.012;-1.648;2024-03-23T11:33:25;5.07;;;1.20;;
52692;SDS011;68218;51.012;-1.648;2024-03-23T11:35:50;10.10;;;1.48;;
52692;SDS011;68218;51.012;-1.648;2024-03-23T11:38:17;5.60;;;0.82;;
52692;SDS011;68218;51.012;-1.648;2024-03-23T11:40:48;4.57;;;1.00;;
52692;SDS011;68218;51.012;-1.648;2024-03-23T11:43:17;4.50;;;1.27;;
52692;SDS011;68218;51.012;-1.648;2024-03-23T11:45:43;2.80;;;0.90;;
52692;SDS011;68218;51.012;-1.648;2024-03-23T11:48:10;2.88;;;0.73;;
52692;SDS011;68218;51.012;-1.648;2024-03-23T11:50:36;5.03;;;0.75;;
52692;SDS011;68218;51.012;-1.648;2024-03-23T11:53:08;6.50;;;1.02;;
52692;SDS011;68218;51.012;-1.648;2024-03-23T11:58:05;7.03;;;1.27;;
52692;SDS011;68218;51.012;-1.648;2024-03-23T12:00:30;5.82;;;0.60;;
52692;SDS011;68218;51.012;-1.648;2024-03-23T12:03:00;3.60;;;0.77;;
52692;SDS011;68218;51.012;-1.648;2024-03-23T12:05:26;6.70;;;1.00;;
52692;SDS011;68218;51.012;-1.648;2024-03-23T12:07:51;4.30;;;0.77;;
52692;SDS011;68218;51.012;-1.648;2024-03-23T12:10:16;5.85;;;1.05;;
52692;SDS011;68218;51.012;-1.648;2024-03-23T12:12:43;6.07;;;1.10;;
52692;SDS011;68218;51.012;-1.648;2024-03-23T12:15:09;5.88;;;1.10;;
52692;SDS011;68218;51.012;-1.648;2024-03-23T12:17:34;4.82;;;0.85;;
52692;SDS011;68218;51.012;-1.648;2024-03-23T12:20:00;7.32;;;1.27;;
52692;SDS011;68218;51.012;-1.648;2024-03-23T12:22:25;4.57;;;0.77;;
52692;SDS011;68218;51.012;-1.648;2024-03-23T12:24:51;4.72;;;1.10;;
52692;SDS011;68218;51.012;-1.648;2024-03-23T12:27:16;6.40;;;1.38;;
52692;SDS011;68218;51.012;-1.648;2024-03-23T12:29:41;9.05;;;2.67;;
52692;SDS011;68218;51.012;-1.648;2024-03-23T12:32:08;9.25;;;1.35;;
52692;SDS011;68218;51.012;-1.648;2024-03-23T12:34:33;5.47;;;1.15;;
52692;SDS011;68218;51.012;-1.648;2024-03-23T12:36:59;5.65;;;1.10;;
52692;SDS011;68218;51.012;-1.648;2024-03-23T12:39:24;3.92;;;0.88;;
52692;SDS011;68218;51.012;-1.648;2024-03-23T12:41:49;5.35;;;0.90;;
52692;SDS011;68218;51.012;-1.648;2024-03-23T12:44:15;7.53;;;1.27;;
52692;SDS011;68218;51.012;-1.648;2024-03-23T12:46:40;4.43;;;0.68;;
52692;SDS011;68218;51.012;-1.648;2024-03-23T12:49:06;5.97;;;1.05;;
52692;SDS011;68218;51.012;-1.648;2024-03-23T12:51:31;4.90;;;1.08;;
52692;SDS011;68218;51.012;-1.648;2024-03-23T12:53:57;4.57;;;0.93;;
52692;SDS011;68218;51.012;-1.648;2024-03-23T12:56:22;8.38;;;1.10;;
52692;SDS011;68218;51.012;-1.648;2024-03-23T12:58:47;8.52;;;1.52;;
52692;SDS011;68218;51.012;-1.648;2024-03-23T13:01:20;6.38;;;1.10;;
52692;SDS011;68218;51.012;-1.648;2024-03-23T13:03:48;9.48;;;1.67;;
52692;SDS011;68218;51.012;-1.648;2024-03-23T13:06:14;9.48;;;1.90;;
52692;SDS011;68218;51.012;-1.648;2024-03-23T13:08:39;6.93;;;1.58;;
52692;SDS011;68218;51.012;-1.648;2024-03-23T13:11:08;10.27;;;1.40;;
52692;SDS011;68218;51.012;-1.648;2024-03-23T13:13:36;9.60;;;1.70;;
52692;SDS011;68218;51.012;-1.648;2024-03-23T13:16:02;11.48;;;1.38;;
52692;SDS011;68218;51.012;-1.648;2024-03-23T13:18:28;8.07;;;1.85;;
52692;SDS011;68218;51.012;-1.648;2024-03-23T13:20:53;12.48;;;1.83;;
52692;SDS011;68218;51.012;-1.648;2024-03-23T13:23:19;9.15;;;1.58;;
52692;SDS011;68218;51.012;-1.648;2024-03-23T13:25:54;10.35;;;2.05;;
52692;SDS011;68218;51.012;-1.648;2024-03-23T13:28:20;6.50;;;1.17;;
52692;SDS011;68218;51.012;-1.648;2024-03-23T13:30:52;9.00;;;1.20;;
52692;SDS011;68218;51.012;-1.648;2024-03-23T13:33:17;10.75;;;1.65;;
52692;SDS011;68218;51.012;-1.648;2024-03-23T13:35:49;8.55;;;1.20;;
52692;SDS011;68218;51.012;-1.648;2024-03-23T13:38:14;9.38;;;1.27;;
52692;SDS011;68218;51.012;-1.648;2024-03-23T13:40:42;8.32;;;1.30;;
52692;SDS011;68218;51.012;-1.648;2024-03-23T13:43:14;8.52;;;1.60;;
52692;SDS011;68218;51.012;-1.648;2024-03-23T13:45:39;7.70;;;1.48;;
52692;SDS011;68218;51.012;-1.648;2024-03-23T13:48:04;6.68;;;1.20;;
52692;SDS011;68218;51.012;-1.648;2024-03-23T13:50:29;7.15;;;1.17;;
52692;SDS011;68218;51.012;-1.648;2024-03-23T13:52:54;6.22;;;1.15;;
52692;SDS011;68218;51.012;-1.648;2024-03-23T13:55:20;4.13;;;1.20;;
52692;SDS011;68218;51.012;-1.648;2024-03-23T13:57:45;5.70;;;0.93;;
52692;SDS011;68218;51.012;-1.648;2024-03-23T14:00:10;7.53;;;1.15;;
52692;SDS011;68218;51.012;-1.648;2024-03-23T14:02:36;6.05;;;1.27;;
52692;SDS011;68218;51.012;-1.648;2024-03-23T14:05:01;5.72;;;1.38;;
52692;SDS011;68218;51.012;-1.648;2024-03-23T14:07:26;9.18;;;1.67;;
52692;SDS011;68218;51.012;-1.648;2024-03-23T14:09:52;5.72;;;1.00;;
52692;SDS011;68218;51.012;-1.648;2024-03-23T14:12:20;7.55;;;1.52;;
52692;SDS011;68218;51.012;-1.648;2024-03-23T14:14:45;7.32;;;1.55;;
52692;SDS011;68218;51.012;-1.648;2024-03-23T14:17:10;6.93;;;1.40;;
52692;SDS011;68218;51.012;-1.648;2024-03-23T14:19:37;3.88;;;0.88;;
52692;SDS011;68218;51.012;-1.648;2024-03-23T14:22:02;2.97;;;0.85;;
52692;SDS011;68218;51.012;-1.648;2024-03-23T14:24:27;2.03;;;0.60;;
52692;SDS011;68218;51.012;-1.648;2024-03-23T14:26:53;3.42;;;1.05;;
52692;SDS011;68218;51.012;-1.648;2024-03-23T14:29:18;2.55;;;0.80;;
52692;SDS011;68218;51.012;-1.648;2024-03-23T14:31:43;4.05;;;0.90;;
52692;SDS011;68218;51.012;-1.648;2024-03-23T14:34:08;2.63;;;1.40;;
52692;SDS011;68218;51.012;-1.648;2024-03-23T14:36:34;4.00;;;0.93;;
52692;SDS011;68218;51.012;-1.648;2024-03-23T14:38:59;6.53;;;1.08;;
52692;SDS011;68218;51.012;-1.648;2024-03-23T14:41:25;2.30;;;1.23;;
52692;SDS011;68218;51.012;-1.648;2024-03-23T14:43:50;5.00;;;1.35;;
52692;SDS011;68218;51.012;-1.648;2024-03-23T14:46:18;4.05;;;0.98;;
52692;SDS011;68218;51.012;-1.648;2024-03-23T14:48:44;4.50;;;1.42;;
52692;SDS011;68218;51.012;-1.648;2024-03-23T14:51:09;4.13;;;1.20;;
52692;SDS011;68218;51.012;-1.648;2024-03-23T14:53:35;4.20;;;1.40;;
52692;SDS011;68218;51.012;-1.648;2024-03-23T14:56:01;5.43;;;1.10;;
52692;SDS011;68218;51.012;-1.648;2024-03-23T14:58:27;2.85;;;0.82;;
52692;SDS011;68218;51.012;-1.648;2024-03-23T15:00:52;4.07;;;1.33;;
52692;SDS011;68218;51.012;-1.648;2024-03-23T15:03:18;4.97;;;1.35;;
52692;SDS011;68218;51.012;-1.648;2024-03-23T15:05:53;3.88;;;1.23;;
52692;SDS011;68218;51.012;-1.648;2024-03-23T15:08:19;4.55;;;1.17;;
52692;SDS011;68218;51.012;-1.648;2024-03-23T15:10:44;5.20;;;1.20;;
52692;SDS011;68218;51.012;-1.648;2024-03-23T15:13:09;3.70;;;1.45;;
52692;SDS011;68218;51.012;-1.648;2024-03-23T15:15:38;1.98;;;1.00;;
52692;SDS011;68218;51.012;-1.648;2024-03-23T15:18:04;4.70;;;1.00;;
52692;SDS011;68218;51.012;-1.648;2024-03-23T15:20:29;6.82;;;1.70;;
52692;SDS011;68218;51.012;-1.648;2024-03-23T15:22:54;5.82;;;1.10;;
52692;SDS011;68218;51.012;-1.648;2024-03-23T15:25:19;5.60;;;0.90;;
52692;SDS011;68218;51.012;-1.648;2024-03-23T15:27:48;3.00;;;1.20;;
52692;SDS011;68218;51.012;-1.648;2024-03-23T15:30:13;4.50;;;1.67;;
52692;SDS011;68218;51.012;-1.648;2024-03-23T15:32:39;4.75;;;1.45;;
52692;SDS011;68218;51.012;-1.648;2024-03-23T15:35:04;5.65;;;1.40;;